sensor_id;sensor_type;location;lat;lon;timestamp;P1;durP1;ratioP1;P2;durP2;ratioP2
27357;SDS011;14831;50.474;7.616;2023-02-28T00:00:37;0.6;;;0.4;;
27357;SDS011;14831;50.474;7.616;2023-02-28T00:05:35;0.6;;;0.4;;
27357;SDS011;14831;50.474;7.616;2023-02-28T00:10:35;0.6;;;0.4;;
27357;SDS011;14831;50.474;7.616;2023-02-28T00:15:35;0.6;;;0.4;;
27357;SDS011;14831;50.474;7.616;2023-02-28T00:20:35;0.6;;;0.4;;
27357;SDS011;14831;50.474;7.616;2023-02-28T00:25:35;0.6;;;0.4;;
27357;SDS011;14831;50.474;7.616;2023-02-28T00:30:35;0.5;;;0.5;;
27357;SDS011;14831;50.474;7.616;2023-02-28T00:35:35;0.5;;;0.5;;
27357;SDS011;14831;50.474;7.616;2023-02-28T00:40:35;0.5;;;0.5;;
27357;SDS011;14831;50.474;7.616;2023-02-28T00:45:35;0.5;;;0.5;;
27357;SDS011;14831;50.474;7.616;2023-02-28T00:50:35;0.5;;;0.5;;
27357;SDS011;14831;50.474;7.616;2023-02-28T00:55:35;0.5;;;0.5;;
27357;SDS011;14831;50.474;7.616;2023-02-28T01:00:35;0.6;;;0.6;;
27357;SDS011;14831;50.474;7.616;2023-02-28T01:06:40;0.6;;;0.6;;
27357;SDS011;14831;50.474;7.616;2023-02-28T01:10:35;0.6;;;0.6;;
27357;SDS011;14831;50.474;7.616;2023-02-28T01:15:35;0.6;;;0.6;;
27357;SDS011;14831;50.474;7.616;2023-02-28T01:20:36;0.6;;;0.6;;
27357;SDS011;14831;50.474;7.616;2023-02-28T01:25:36;0.6;;;0.6;;
27357;SDS011;14831;50.474;7.616;2023-02-28T01:30:35;0.4;;;0.4;;
27357;SDS011;14831;50.474;7.616;2023-02-28T01:35:35;0.4;;;0.4;;
27357;SDS011;14831;50.474;7.616;2023-02-28T01:40:35;0.4;;;0.4;;
27357;SDS011;14831;50.474;7.616;2023-02-28T01:45:35;0.4;;;0.4;;
27357;SDS011;14831;50.474;7.616;2023-02-28T01:50:42;0.4;;;0.4;;
27357;SDS011;14831;50.474;7.616;2023-02-28T01:55:35;0.4;;;0.4;;
27357;SDS011;14831;50.474;7.616;2023-02-28T02:00:35;0.5;;;0.5;;
27357;SDS011;14831;50.474;7.616;2023-02-28T02:05:37;0.5;;;0.5;;
27357;SDS011;14831;50.474;7.616;2023-02-28T02:15:40;0.5;;;0.5;;
27357;SDS011;14831;50.474;7.616;2023-02-28T02:20:51;0.5;;;0.5;;
27357;SDS011;14831;50.474;7.616;2023-02-28T02:25:40;0.5;;;0.5;;
27357;SDS011;14831;50.474;7.616;2023-02-28T02:30:49;0.5;;;0.5;;
27357;SDS011;14831;50.474;7.616;2023-02-28T02:35:40;0.5;;;0.5;;
27357;SDS011;14831;50.474;7.616;2023-02-28T02:40:39;0.5;;;0.5;;
27357;SDS011;14831;50.474;7.616;2023-02-28T02:45:39;0.5;;;0.5;;
27357;SDS011;14831;50.474;7.616;2023-02-28T02:50:38;0.5;;;0.5;;
27357;SDS011;14831;50.474;7.616;2023-02-28T02:55:40;0.5;;;0.5;;
27357;SDS011;14831;50.474;7.616;2023-02-28T03:00:38;0.4;;;0.4;;
27357;SDS011;14831;50.474;7.616;2023-02-28T03:05:41;0.4;;;0.4;;
27357;SDS011;14831;50.474;7.616;2023-02-28T03:10:38;0.4;;;0.4;;
27357;SDS011;14831;50.474;7.616;2023-02-28T03:15:43;0.4;;;0.4;;
27357;SDS011;14831;50.474;7.616;2023-02-28T03:20:39;0.4;;;0.4;;
27357;SDS011;14831;50.474;7.616;2023-02-28T03:25:42;0.4;;;0.4;;
27357;SDS011;14831;50.474;7.616;2023-02-28T03:30:40;0.5;;;0.5;;
27357;SDS011;14831;50.474;7.616;2023-02-28T03:35:38;0.5;;;0.5;;
27357;SDS011;14831;50.474;7.616;2023-02-28T03:40:37;0.5;;;0.5;;
27357;SDS011;14831;50.474;7.616;2023-02-28T03:45:37;0.5;;;0.5;;
27357;SDS011;14831;50.474;7.616;2023-02-28T03:50:38;0.5;;;0.5;;
27357;SDS011;14831;50.474;7.616;2023-02-28T03:55:40;0.5;;;0.5;;
27357;SDS011;14831;50.474;7.616;2023-02-28T04:00:37;0.5;;;0.5;;
27357;SDS011;14831;50.474;7.616;2023-02-28T04:05:47;0.5;;;0.5;;
27357;SDS011;14831;50.474;7.616;2023-02-28T04:10:35;0.5;;;0.5;;
27357;SDS011;14831;50.474;7.616;2023-02-28T04:15:36;0.5;;;0.5;;
27357;SDS011;14831;50.474;7.616;2023-02-28T04:20:35;0.5;;;0.5;;
27357;SDS011;14831;50.474;7.616;2023-02-28T04:25:35;0.5;;;0.5;;
27357;SDS011;14831;50.474;7.616;2023-02-28T04:30:35;0.6;;;0.6;;
27357;SDS011;14831;50.474;7.616;2023-02-28T04:35:35;0.6;;;0.6;;
27357;SDS011;14831;50.474;7.616;2023-02-28T04:40:35;0.6;;;0.6;;
27357;SDS011;14831;50.474;7.616;2023-02-28T04:45:35;0.6;;;0.6;;
27357;SDS011;14831;50.474;7.616;2023-02-28T04:50:35;0.6;;;0.6;;
27357;SDS011;14831;50.474;7.616;2023-02-28T04:55:36;0.6;;;0.6;;
27357;SDS011;14831;50.474;7.616;2023-02-28T05:00:35;0.5;;;0.5;;
27357;SDS011;14831;50.474;7.616;2023-02-28T05:05:35;0.5;;;0.5;;
27357;SDS011;14831;50.474;7.616;2023-02-28T05:10:35;0.5;;;0.5;;
27357;SDS011;14831;50.474;7.616;2023-02-28T05:15:35;0.5;;;0.5;;
27357;SDS011;14831;50.474;7.616;2023-02-28T05:25:35;0.5;;;0.5;;
27357;SDS011;14831;50.474;7.616;2023-02-28T05:30:35;0.6;;;0.6;;
27357;SDS011;14831;50.474;7.616;2023-02-28T05:35:38;0.6;;;0.6;;
27357;SDS011;14831;50.474;7.616;2023-02-28T05:40:38;0.6;;;0.6;;
27357;SDS011;14831;50.474;7.616;2023-02-28T05:45:35;0.6;;;0.6;;
27357;SDS011;14831;50.474;7.616;2023-02-28T05:50:35;0.6;;;0.6;;
27357;SDS011;14831;50.474;7.616;2023-02-28T05:55:35;0.6;;;0.6;;
27357;SDS011;14831;50.474;7.616;2023-02-28T06:00:35;0.4;;;0.4;;
27357;SDS011;14831;50.474;7.616;2023-02-28T06:05:35;0.4;;;0.4;;
27357;SDS011;14831;50.474;7.616;2023-02-28T06:10:35;0.4;;;0.4;;
27357;SDS011;14831;50.474;7.616;2023-02-28T06:15:35;0.4;;;0.4;;
27357;SDS011;14831;50.474;7.616;2023-02-28T06:20:35;0.4;;;0.4;;
27357;SDS011;14831;50.474;7.616;2023-02-28T06:25:35;0.4;;;0.4;;
27357;SDS011;14831;50.474;7.616;2023-02-28T06:30:36;0.5;;;0.5;;
27357;SDS011;14831;50.474;7.616;2023-02-28T06:35:35;0.5;;;0.5;;
27357;SDS011;14831;50.474;7.616;2023-02-28T06:40:35;0.5;;;0.5;;
27357;SDS011;14831;50.474;7.616;2023-02-28T06:45:35;0.5;;;0.5;;
27357;SDS011;14831;50.474;7.616;2023-02-28T06:50:35;0.5;;;0.5;;
27357;SDS011;14831;50.474;7.616;2023-02-28T06:55:37;0.5;;;0.5;;
27357;SDS011;14831;50.474;7.616;2023-02-28T07:00:35;0.6;;;0.6;;
27357;SDS011;14831;50.474;7.616;2023-02-28T07:05:35;0.6;;;0.6;;
27357;SDS011;14831;50.474;7.616;2023-02-28T07:10:37;0.6;;;0.6;;
27357;SDS011;14831;50.474;7.616;2023-02-28T07:15:35;0.6;;;0.6;;
27357;SDS011;14831;50.474;7.616;2023-02-28T07:20:37;0.6;;;0.6;;
27357;SDS011;14831;50.474;7.616;2023-02-28T07:25:35;0.6;;;0.6;;
27357;SDS011;14831;50.474;7.616;2023-02-28T07:30:35;1.8;;;0.7;;
27357;SDS011;14831;50.474;7.616;2023-02-28T07:35:35;1.8;;;0.7;;
27357;SDS011;14831;50.474;7.616;2023-02-28T07:40:36;1.8;;;0.7;;
27357;SDS011;14831;50.474;7.616;2023-02-28T07:45:35;1.8;;;0.7;;
27357;SDS011;14831;50.474;7.616;2023-02-28T07:50:35;1.8;;;0.7;;
27357;SDS011;14831;50.474;7.616;2023-02-28T07:55:35;1.8;;;0.7;;
27357;SDS011;14831;50.474;7.616;2023-02-28T08:00:36;2.0;;;0.9;;
27357;SDS011;14831;50.474;7.616;2023-02-28T08:05:38;2.0;;;0.9;;
27357;SDS011;14831;50.474;7.616;2023-02-28T08:10:35;2.0;;;0.9;;
27357;SDS011;14831;50.474;7.616;2023-02-28T08:15:35;2.0;;;0.9;;
27357;SDS011;14831;50.474;7.616;2023-02-28T08:20:35;2.0;;;0.9;;
27357;SDS011;14831;50.474;7.616;2023-02-28T08:25:35;2.0;;;0.9;;
27357;SDS011;14831;50.474;7.616;2023-02-28T08:30:35;1.7;;;0.7;;
27357;SDS011;14831;50.474;7.616;2023-02-28T08:35:36;1.7;;;0.7;;
27357;SDS011;14831;50.474;7.616;2023-02-28T08:40:35;1.7;;;0.7;;
27357;SDS011;14831;50.474;7.616;2023-02-28T08:45:35;1.7;;;0.7;;
27357;SDS011;14831;50.474;7.616;2023-02-28T08:50:35;1.7;;;0.7;;
27357;SDS011;14831;50.474;7.616;2023-02-28T08:55:35;1.7;;;0.7;;
27357;SDS011;14831;50.474;7.616;2023-02-28T09:00:35;4.0;;;1.3;;
27357;SDS011;14831;50.474;7.616;2023-02-28T09:05:35;4.0;;;1.3;;
27357;SDS011;14831;50.474;7.616;2023-02-28T09:10:35;4.0;;;1.3;;
27357;SDS011;14831;50.474;7.616;2023-02-28T09:15:36;4.0;;;1.3;;
27357;SDS011;14831;50.474;7.616;2023-02-28T09:20:37;4.0;;;1.3;;
27357;SDS011;14831;50.474;7.616;2023-02-28T09:25:36;4.0;;;1.3;;
27357;SDS011;14831;50.474;7.616;2023-02-28T09:30:35;3.3;;;1.3;;
27357;SDS011;14831;50.474;7.616;2023-02-28T09:35:35;3.3;;;1.3;;
27357;SDS011;14831;50.474;7.616;2023-02-28T09:40:37;3.3;;;1.3;;
27357;SDS011;14831;50.474;7.616;2023-02-28T09:45:39;3.3;;;1.3;;
27357;SDS011;14831;50.474;7.616;2023-02-28T09:50:39;3.3;;;1.3;;
27357;SDS011;14831;50.474;7.616;2023-02-28T09:55:39;3.3;;;1.3;;
27357;SDS011;14831;50.474;7.616;2023-02-28T10:00:39;2.0;;;1.1;;
27357;SDS011;14831;50.474;7.616;2023-02-28T10:05:39;2.0;;;1.1;;
27357;SDS011;14831;50.474;7.616;2023-02-28T10:10:40;2.0;;;1.1;;
27357;SDS011;14831;50.474;7.616;2023-02-28T10:15:36;2.0;;;1.1;;
27357;SDS011;14831;50.474;7.616;2023-02-28T10:20:38;2.0;;;1.1;;
27357;SDS011;14831;50.474;7.616;2023-02-28T10:25:37;2.0;;;1.1;;
27357;SDS011;14831;50.474;7.616;2023-02-28T10:30:40;1.2;;;1.0;;
27357;SDS011;14831;50.474;7.616;2023-02-28T10:35:35;1.2;;;1.0;;
27357;SDS011;14831;50.474;7.616;2023-02-28T10:40:35;1.2;;;1.0;;
27357;SDS011;14831;50.474;7.616;2023-02-28T10:45:36;1.2;;;1.0;;
27357;SDS011;14831;50.474;7.616;2023-02-28T10:50:42;1.2;;;1.0;;
27357;SDS011;14831;50.474;7.616;2023-02-28T10:55:36;1.2;;;1.0;;
27357;SDS011;14831;50.474;7.616;2023-02-28T11:00:36;1.1;;;0.9;;
27357;SDS011;14831;50.474;7.616;2023-02-28T11:05:36;1.1;;;0.9;;
27357;SDS011;14831;50.474;7.616;2023-02-28T11:10:35;1.1;;;0.9;;
27357;SDS011;14831;50.474;7.616;2023-02-28T11:15:35;1.1;;;0.9;;
27357;SDS011;14831;50.474;7.616;2023-02-28T11:20:35;1.1;;;0.9;;
27357;SDS011;14831;50.474;7.616;2023-02-28T11:25:37;1.1;;;0.9;;
27357;SDS011;14831;50.474;7.616;2023-02-28T11:30:37;1.0;;;0.9;;
27357;SDS011;14831;50.474;7.616;2023-02-28T11:35:38;1.0;;;0.9;;
27357;SDS011;14831;50.474;7.616;2023-02-28T11:40:43;1.0;;;0.9;;
27357;SDS011;14831;50.474;7.616;2023-02-28T11:46:44;1.0;;;0.9;;
27357;SDS011;14831;50.474;7.616;2023-02-28T11:50:45;1.0;;;0.9;;
27357;SDS011;14831;50.474;7.616;2023-02-28T11:55:37;1.0;;;0.9;;
27357;SDS011;14831;50.474;7.616;2023-02-28T12:00:43;0.9;;;0.8;;
27357;SDS011;14831;50.474;7.616;2023-02-28T12:05:41;0.9;;;0.8;;
27357;SDS011;14831;50.474;7.616;2023-02-28T12:10:43;0.9;;;0.8;;
27357;SDS011;14831;50.474;7.616;2023-02-28T12:15:51;0.9;;;0.8;;
27357;SDS011;14831;50.474;7.616;2023-02-28T12:20:39;0.9;;;0.8;;
27357;SDS011;14831;50.474;7.616;2023-02-28T12:25:47;0.9;;;0.8;;
27357;SDS011;14831;50.474;7.616;2023-02-28T12:30:39;0.9;;;0.9;;
27357;SDS011;14831;50.474;7.616;2023-02-28T12:35:38;0.9;;;0.9;;
27357;SDS011;14831;50.474;7.616;2023-02-28T12:40:43;0.9;;;0.9;;
27357;SDS011;14831;50.474;7.616;2023-02-28T12:45:41;0.9;;;0.9;;
27357;SDS011;14831;50.474;7.616;2023-02-28T12:50:36;0.9;;;0.9;;
27357;SDS011;14831;50.474;7.616;2023-02-28T12:55:41;0.9;;;0.9;;
27357;SDS011;14831;50.474;7.616;2023-02-28T13:00:40;0.9;;;0.9;;
27357;SDS011;14831;50.474;7.616;2023-02-28T13:05:46;0.9;;;0.9;;
27357;SDS011;14831;50.474;7.616;2023-02-28T13:10:41;0.9;;;0.9;;
27357;SDS011;14831;50.474;7.616;2023-02-28T13:15:35;0.9;;;0.9;;
27357;SDS011;14831;50.474;7.616;2023-02-28T13:20:37;0.9;;;0.9;;
27357;SDS011;14831;50.474;7.616;2023-02-28T13:25:51;0.9;;;0.9;;
27357;SDS011;14831;50.474;7.616;2023-02-28T13:31:07;0.8;;;0.8;;
27357;SDS011;14831;50.474;7.616;2023-02-28T13:35:37;0.8;;;0.8;;
27357;SDS011;14831;50.474;7.616;2023-02-28T13:40:35;0.8;;;0.8;;
27357;SDS011;14831;50.474;7.616;2023-02-28T13:45:35;0.8;;;0.8;;
27357;SDS011;14831;50.474;7.616;2023-02-28T13:50:37;0.8;;;0.8;;
27357;SDS011;14831;50.474;7.616;2023-02-28T13:55:38;0.8;;;0.8;;
27357;SDS011;14831;50.474;7.616;2023-02-28T14:00:44;1.1;;;1.0;;
27357;SDS011;14831;50.474;7.616;2023-02-28T14:05:36;1.1;;;1.0;;
27357;SDS011;14831;50.474;7.616;2023-02-28T14:10:42;1.1;;;1.0;;
27357;SDS011;14831;50.474;7.616;2023-02-28T14:15:40;1.1;;;1.0;;
27357;SDS011;14831;50.474;7.616;2023-02-28T14:20:35;1.1;;;1.0;;
27357;SDS011;14831;50.474;7.616;2023-02-28T14:25:41;1.1;;;1.0;;
27357;SDS011;14831;50.474;7.616;2023-02-28T14:30:51;1.1;;;1.0;;
27357;SDS011;14831;50.474;7.616;2023-02-28T14:35:45;1.1;;;1.0;;
27357;SDS011;14831;50.474;7.616;2023-02-28T14:40:38;1.1;;;1.0;;
27357;SDS011;14831;50.474;7.616;2023-02-28T14:45:35;1.1;;;1.0;;
27357;SDS011;14831;50.474;7.616;2023-02-28T14:50:37;1.1;;;1.0;;
27357;SDS011;14831;50.474;7.616;2023-02-28T15:00:40;0.9;;;0.9;;
27357;SDS011;14831;50.474;7.616;2023-02-28T15:05:35;0.9;;;0.9;;
27357;SDS011;14831;50.474;7.616;2023-02-28T15:10:35;0.9;;;0.9;;
27357;SDS011;14831;50.474;7.616;2023-02-28T15:15:41;0.9;;;0.9;;
27357;SDS011;14831;50.474;7.616;2023-02-28T15:20:37;0.9;;;0.9;;
27357;SDS011;14831;50.474;7.616;2023-02-28T15:25:35;0.9;;;0.9;;
27357;SDS011;14831;50.474;7.616;2023-02-28T15:30:35;0.9;;;0.9;;
27357;SDS011;14831;50.474;7.616;2023-02-28T15:35:35;0.9;;;0.9;;
27357;SDS011;14831;50.474;7.616;2023-02-28T15:40:37;0.9;;;0.9;;
27357;SDS011;14831;50.474;7.616;2023-02-28T15:45:37;0.9;;;0.9;;
27357;SDS011;14831;50.474;7.616;2023-02-28T15:50:35;0.9;;;0.9;;
27357;SDS011;14831;50.474;7.616;2023-02-28T15:55:36;0.9;;;0.9;;
27357;SDS011;14831;50.474;7.616;2023-02-28T16:00:35;1.1;;;1.0;;
27357;SDS011;14831;50.474;7.616;2023-02-28T16:05:35;1.1;;;1.0;;
27357;SDS011;14831;50.474;7.616;2023-02-28T16:10:35;1.1;;;1.0;;
27357;SDS011;14831;50.474;7.616;2023-02-28T16:15:38;1.1;;;1.0;;
27357;SDS011;14831;50.474;7.616;2023-02-28T16:20:35;1.1;;;1.0;;
27357;SDS011;14831;50.474;7.616;2023-02-28T16:25:37;1.1;;;1.0;;
27357;SDS011;14831;50.474;7.616;2023-02-28T16:30:35;0.8;;;0.8;;
27357;SDS011;14831;50.474;7.616;2023-02-28T16:35:35;0.8;;;0.8;;
27357;SDS011;14831;50.474;7.616;2023-02-28T16:40:36;0.8;;;0.8;;
27357;SDS011;14831;50.474;7.616;2023-02-28T16:45:35;0.8;;;0.8;;
27357;SDS011;14831;50.474;7.616;2023-02-28T16:50:35;0.8;;;0.8;;
27357;SDS011;14831;50.474;7.616;2023-02-28T16:55:36;0.8;;;0.8;;
27357;SDS011;14831;50.474;7.616;2023-02-28T17:00:35;0.9;;;0.9;;
27357;SDS011;14831;50.474;7.616;2023-02-28T17:05:37;0.9;;;0.9;;
27357;SDS011;14831;50.474;7.616;2023-02-28T17:10:35;0.9;;;0.9;;
27357;SDS011;14831;50.474;7.616;2023-02-28T17:15:36;0.9;;;0.9;;
27357;SDS011;14831;50.474;7.616;2023-02-28T17:20:35;0.9;;;0.9;;
27357;SDS011;14831;50.474;7.616;2023-02-28T17:25:36;0.9;;;0.9;;
27357;SDS011;14831;50.474;7.616;2023-02-28T17:30:35;1.1;;;1.0;;
27357;SDS011;14831;50.474;7.616;2023-02-28T17:35:35;1.1;;;1.0;;
27357;SDS011;14831;50.474;7.616;2023-02-28T17:40:35;1.1;;;1.0;;
27357;SDS011;14831;50.474;7.616;2023-02-28T17:45:35;1.1;;;1.0;;
27357;SDS011;14831;50.474;7.616;2023-02-28T17:50:35;1.1;;;1.0;;
27357;SDS011;14831;50.474;7.616;2023-02-28T17:55:35;1.1;;;1.0;;
27357;SDS011;14831;50.474;7.616;2023-02-28T18:00:35;1.1;;;1.0;;
27357;SDS011;14831;50.474;7.616;2023-02-28T18:08:17;1.1;;;1.0;;
27357;SDS011;14831;50.474;7.616;2023-02-28T18:10:35;1.1;;;1.0;;
27357;SDS011;14831;50.474;7.616;2023-02-28T18:15:35;1.1;;;1.0;;
27357;SDS011;14831;50.474;7.616;2023-02-28T18:20:35;1.1;;;1.0;;
27357;SDS011;14831;50.474;7.616;2023-02-28T18:25:35;1.1;;;1.0;;
27357;SDS011;14831;50.474;7.616;2023-02-28T18:30:36;1.3;;;1.2;;
27357;SDS011;14831;50.474;7.616;2023-02-28T18:35:35;1.3;;;1.2;;
27357;SDS011;14831;50.474;7.616;2023-02-28T18:40:36;1.3;;;1.2;;
27357;SDS011;14831;50.474;7.616;2023-02-28T18:45:35;1.3;;;1.2;;
27357;SDS011;14831;50.474;7.616;2023-02-28T18:50:36;1.3;;;1.2;;
27357;SDS011;14831;50.474;7.616;2023-02-28T18:55:35;1.3;;;1.2;;
27357;SDS011;14831;50.474;7.616;2023-02-28T19:00:35;1.2;;;1.1;;
27357;SDS011;14831;50.474;7.616;2023-02-28T19:05:36;1.2;;;1.1;;
27357;SDS011;14831;50.474;7.616;2023-02-28T19:10:37;1.2;;;1.1;;
27357;SDS011;14831;50.474;7.616;2023-02-28T19:15:35;1.2;;;1.1;;
27357;SDS011;14831;50.474;7.616;2023-02-28T19:20:35;1.2;;;1.1;;
27357;SDS011;14831;50.474;7.616;2023-02-28T19:25:39;1.2;;;1.1;;
27357;SDS011;14831;50.474;7.616;2023-02-28T19:30:35;1.4;;;1.2;;
27357;SDS011;14831;50.474;7.616;2023-02-28T19:35:35;1.4;;;1.2;;
27357;SDS011;14831;50.474;7.616;2023-02-28T19:40:35;1.4;;;1.2;;
27357;SDS011;14831;50.474;7.616;2023-02-28T19:45:36;1.4;;;1.2;;
27357;SDS011;14831;50.474;7.616;2023-02-28T19:50:35;1.4;;;1.2;;
27357;SDS011;14831;50.474;7.616;2023-02-28T19:55:36;1.4;;;1.2;;
27357;SDS011;14831;50.474;7.616;2023-02-28T20:00:36;1.2;;;1.1;;
27357;SDS011;14831;50.474;7.616;2023-02-28T20:05:35;1.2;;;1.1;;
27357;SDS011;14831;50.474;7.616;2023-02-28T20:10:35;1.2;;;1.1;;
27357;SDS011;14831;50.474;7.616;2023-02-28T20:15:36;1.2;;;1.1;;
27357;SDS011;14831;50.474;7.616;2023-02-28T20:20:35;1.2;;;1.1;;
27357;SDS011;14831;50.474;7.616;2023-02-28T20:25:38;1.2;;;1.1;;
27357;SDS011;14831;50.474;7.616;2023-02-28T20:30:37;1.2;;;1.1;;
27357;SDS011;14831;50.474;7.616;2023-02-28T20:35:36;1.2;;;1.1;;
27357;SDS011;14831;50.474;7.616;2023-02-28T20:40:35;1.2;;;1.1;;
27357;SDS011;14831;50.474;7.616;2023-02-28T20:45:35;1.2;;;1.1;;
27357;SDS011;14831;50.474;7.616;2023-02-28T20:50:35;1.2;;;1.1;;
27357;SDS011;14831;50.474;7.616;2023-02-28T20:55:35;1.2;;;1.1;;
27357;SDS011;14831;50.474;7.616;2023-02-28T21:00:35;1.3;;;1.2;;
27357;SDS011;14831;50.474;7.616;2023-02-28T21:05:35;1.3;;;1.2;;
27357;SDS011;14831;50.474;7.616;2023-02-28T21:10:35;1.3;;;1.2;;
27357;SDS011;14831;50.474;7.616;2023-02-28T21:18:50;1.3;;;1.2;;
27357;SDS011;14831;50.474;7.616;2023-02-28T21:20:35;1.3;;;1.2;;
27357;SDS011;14831;50.474;7.616;2023-02-28T21:25:35;1.3;;;1.2;;
27357;SDS011;14831;50.474;7.616;2023-02-28T21:30:35;1.2;;;1.1;;
27357;SDS011;14831;50.474;7.616;2023-02-28T21:35:35;1.2;;;1.1;;
27357;SDS011;14831;50.474;7.616;2023-02-28T21:40:35;1.2;;;1.1;;
27357;SDS011;14831;50.474;7.616;2023-02-28T21:45:35;1.2;;;1.1;;
27357;SDS011;14831;50.474;7.616;2023-02-28T21:50:35;1.2;;;1.1;;
27357;SDS011;14831;50.474;7.616;2023-02-28T21:55:35;1.2;;;1.1;;
27357;SDS011;14831;50.474;7.616;2023-02-28T22:00:35;1.3;;;1.2;;
27357;SDS011;14831;50.474;7.616;2023-02-28T22:05:35;1.3;;;1.2;;
27357;SDS011;14831;50.474;7.616;2023-02-28T22:10:35;1.3;;;1.2;;
27357;SDS011;14831;50.474;7.616;2023-02-28T22:15:35;1.3;;;1.2;;
27357;SDS011;14831;50.474;7.616;2023-02-28T22:20:35;1.3;;;1.2;;
27357;SDS011;14831;50.474;7.616;2023-02-28T22:25:36;1.3;;;1.2;;
27357;SDS011;14831;50.474;7.616;2023-02-28T22:30:35;1.2;;;1.2;;
27357;SDS011;14831;50.474;7.616;2023-02-28T22:35:35;1.2;;;1.2;;
27357;SDS011;14831;50.474;7.616;2023-02-28T22:40:35;1.2;;;1.2;;
27357;SDS011;14831;50.474;7.616;2023-02-28T22:45:35;1.2;;;1.2;;
27357;SDS011;14831;50.474;7.616;2023-02-28T22:50:35;1.2;;;1.2;;
27357;SDS011;14831;50.474;7.616;2023-02-28T22:55:35;1.2;;;1.2;;
27357;SDS011;14831;50.474;7.616;2023-02-28T23:00:35;1.4;;;1.3;;
27357;SDS011;14831;50.474;7.616;2023-02-28T23:05:35;1.4;;;1.3;;
27357;SDS011;14831;50.474;7.616;2023-02-28T23:10:40;1.4;;;1.3;;
27357;SDS011;14831;50.474;7.616;2023-02-28T23:15:38;1.4;;;1.3;;
27357;SDS011;14831;50.474;7.616;2023-02-28T23:20:35;1.4;;;1.3;;
27357;SDS011;14831;50.474;7.616;2023-02-28T23:25:38;1.4;;;1.3;;
27357;SDS011;14831;50.474;7.616;2023-02-28T23:30:36;1.5;;;1.4;;
27357;SDS011;14831;50.474;7.616;2023-02-28T23:35:35;1.5;;;1.4;;
27357;SDS011;14831;50.474;7.616;2023-02-28T23:40:35;1.5;;;1.4;;
27357;SDS011;14831;50.474;7.616;2023-02-28T23:45:35;1.5;;;1.4;;
27357;SDS011;14831;50.474;7.616;2023-02-28T23:50:36;1.5;;;1.4;;
27357;SDS011;14831;50.474;7.616;2023-02-28T23:55:35;1.5;;;1.4;;
